Saint Médard d'Aunis (17)                   Janvier 2020                              
  Température (°C) - Abri Young à ventilation mécanique 43502 Humidité Vent (km/h) PeetBros Précipitations (mm) Pression (hPa) Divers  
Date Maxi Mini Moy de 1440 relevés Moy (tx+tn)/2 Index chaleur moyen Index chaleur maxi Froid dû au vent moy  Froid dû au vent mini/1min   Amplitude (Tx-Tn) Tx OMM/1min Tn OMM/1min Tm OMM/1min Relative maxi Relative mini Relative moy de 1440 relevés Relative moy (hx+hn)/2 Point de rosée maxi Point de rosée mini Point de rosée moy 1440 relevés Vent moy maxi (10min) Vent  moyen (24h) Direction dominante Rafales (km/h) maxi Direction rafale maxi Rafales moy (24h) Rafales (km/h)   maxi Total du jour (mm) Durée en heures et dixièmes Intensité maxi sur 1 min (mm/h) Maxi Mini Moy de 1440 relevés Moy (px+pn)/2 Variation Epaisseur neige (cm) Remarques diverses    
01/01/2020 12,1 7,2 9,50 9,65 9,76 12,2 8,25 4,8 4,9 12,0 7,3 9,65 98% 96% 97,7% 97,0% 11,5 7,0 9,16 20,58 9,13 S 32,2 SW 11,79 * 2,6 1,0 12,0 1031,5 1029,4 1030,33 1030,45 2,1   Ciel entre 7/8 et 8/8, pluie intermittente  
02/01/2020 10,9 6,4 9,02 8,65 9,25 11,1 7,30 4,5 4,5 10,9 6,5 8,70 98% 85% 95,1% 91,5% 9,5 5,8 8,26 17,70 10,94 S 27,4 S 14,35 * 0,0 0,0 0,0 1029,4 1026,6 1027,80 1028,00 2,8   Ciel entre 7/8 et 8/8, pluie intermittente  
03/01/2020 13,8 7,6 10,79 10,70 10,97 13,7 8,24 5,1 6,2 13,7 7,7 10,70 98% 85% 93,9% 91,5% 11,8 7,0 9,85 33,16 17,12 WSW 43,5 W 21,20 * 3,8 1,5 12,0 1035,0 1026,4 1029,75 1030,70 8,6   Ciel entre 3/8 et 8/8, pluie, averses  
04/01/2020 9,9 0,5 6,33 5,20 6,34 9,7 4,92 -0,6 9,4 9,9 0,6 5,25 97% 71% 89,5% 84,0% 7,8 0,1 4,66 14,50 7,56 N 19,3 N 9,85 * 0,0 0,0 0,0 1039,5 1034,8 1037,86 1037,15 4,7   Ciel 3/8 à 5/8 le matin, 5/8 l'après-midi, 0/8 le soir  
05/01/2020 9,7 -0,4 3,84 4,65 3,78 9,4 2,02 -2,2 10,1 9,6 -0,4 4,60 97% 72% 90,1% 84,5% 5,7 -0,8 2,27 17,06 8,09 NE 27,4 NE 10,64 * 0,2 0,1 12,0 1038,6 1029,4 1035,10 1034,00 9,2   Ciel 0/8  
06/01/2020 7,1 -1,3 3,33 2,90 3,34 7,1 1,57 -3,7 8,4 7,1 -1,3 2,90 97% 88% 94,5% 92,5% 5,7 -1,7 2,52 20,26 7,99 SSE 33,8 SSE 10,75 * 0,2 0,1 12,0 1030,8 1027,0 1028,57 1028,90 3,8   Ciel 0/8 à 6/8 le matin, entre 6/8 et 8/8 l'après-midi, 4/8 le soir  
07/01/2020 12,6 6,2 10,21 9,40 10,43 12,7 8,91 3,5 6,4 12,6 6,2 9,40 98% 97% 97,9% 97,5% 12,2 5,7 9,88 20,10 9,91 SSE 25,7 W 12,88 * 3,6 1,5 12,0 1032,5 1030,2 1031,05 1031,35 2,3   Ciel 5/8 à 8/8, pluie  
08/01/2020 12,9 9,9 10,98 11,40 11,18 13,0 9,45 6,7 3,0 12,9 9,9 11,40 98% 90% 94,9% 94,0% 11,7 9,2 10,18 19,30 11,80 S 32,2 SSE 15,53 * 0,2 0,1 12,0 1031,0 1025,6 1029,20 1028,30 5,4   Ciel entre 7/8 et 8/8  
09/01/2020 12,3 9,4 10,80 10,85 10,98 12,3 7,64 5,4 2,9 12,3 9,4 10,85 97% 83% 93,2% 90,0% 11,4 8,5 9,74 51,82 22,22 S 69,2 WSW 28,85 * 7,0 1,8 12,0 1025,6 1015,7 1019,28 1020,65 9,9   Ciel entre 7/8 et 8/8, pluie l'après-midi  
10/01/2020 11,3 2,0 8,55 6,65 8,53 11,2 6,76 2,1 9,3 11,3 2,1 6,70 97% 68% 84,2% 82,5% 8,9 1,6 5,95 36,53 12,11 NW 54,7 W 15,41 * 0,2 0,1 12,0 1035,1 1017,8 1028,35 1026,45 17,3   Ciel entre 6/8 et 8/8 le matin, entre 5/8 et 7/8 l'après-midi  
11/01/2020 9,9 -0,2 3,99 4,85 3,98 9,8 3,09 -2,6 10,1 9,9 -0,2 4,85 97% 75% 92,3% 86,0% 6,7 -0,6 2,79 13,06 4,92 SSE 20,9 S 6,60 * 0,0 0,0 0,0 1035,3 1030,6 1033,37 1032,95 4,7   Ciel 0/8 à 3/8 le matin, entre 2/8 et 6/8 ensuite  
12/01/2020 11,1 0,9 7,15 6,00 7,31 11,3 5,16 -1,6 10,2 11,1 1,0 6,05 98% 91% 95,2% 94,5% 10,8 0,3 6,43 19,78 10,52 SSE 30,6 SSE 13,64 * 3,0 1,3 12,0 1030,9 1026,8 1029,26 1028,85 4,1   Ciel 4/8 à 8/8, pluie, brouillard le soir  
13/01/2020 10,7 7,1 8,77 8,90 8,89 10,7 5,51 3,1 3,6 10,7 7,2 8,95 98% 81% 90,8% 89,5% 9,3 5,4 7,32 26,22 19,21 SSE 43,5 SSE 25,16 * 2,6 0,9 12,0 1026,8 1013,5 1019,41 1020,15 13,3   Ciel entre 7/8 et 8/8, pluie intermittente  
14/01/2020 10,7 6,8 8,73 8,75 8,78 10,6 5,26 2,2 3,9 10,6 6,8 8,70 92% 81% 86,5% 86,5% 8,2 5,3 6,60 25,40 20,62 SSE 45,1 SSE 26,79 * 2,6 1,1 12,0 1015,2 1012,5 1013,77 1013,85 2,7   Ciel entre 5/8 et 8/8, pluie  
15/01/2020 12,7 5,1 8,89 8,90 8,90 12,7 6,07 2,9 7,6 12,7 5,2 8,95 98% 76% 86,6% 87,0% 10,8 4,9 6,71 35,24 18,44 SSE 57,9 SSE 23,60 * 0,2 0,1 12,0 1024,2 1012,5 1017,54 1018,35 11,7   Ciel entre 6/8 et 8/8, 5/8 en fin d'après-midi, 1/8 le soir  
16/01/2020 15,0 5,6 10,09 10,30 10,04 14,6 6,84 2,6 9,4 15,0 5,6 10,30 98% 68% 85,8% 83,0% 10,4 5,3 7,71 31,56 20,75 SSE 49,9 SSE 26,90 * 0,8 0,3 12,0 1023,9 1017,1 1020,21 1020,50 6,8   Ciel 2/8, 8/8 le soir avec pluie  
17/01/2020 12,2 1,5 8,19 6,85 8,24 11,9 5,81 0,2 10,7 12,1 1,6 6,85 97% 70% 89,4% 83,5% 10,1 1,0 6,50 34,28 14,66 WSW 46,7 W 18,35 * 7,0 2,0 60,0 1030,2 1018,2 1024,04 1024,20 12,0   Ciel entre 4/8 et 8/8, averses, 0/8 le soir  
                                                                           
                                                                           
                                                                           
                                                                           
                                                                           
                                                                           
                                                                           
                                                                           
                                                                           
                                                                           
                                                                           
                                                                           
                                                                           
                                                                           
  Température (°C) - Abri Young à ventilation mécanique 43502 Humidité Vent (km/h) PeetBros Précipitations (mm) Pression (hPa) Divers  
  Maxi Mini Moy de 1440 relevés Moy (tx+tn)/2 Index chaleur moyen Index chaleur maxi Froid dû au vent moy  Froid dû au vent mini/1min   Amplitude (Tx-Tn) Tx OMM/1min Tn OMM/1min Tm OMM/1min Relative maxi Relative mini Relative moy de 1440 relevés Relative moy (hx+hn)/2 Point de rosée maxi Point de rosée mini Point de rosée moy 1440 relevés Vent moy maxi (10min) Vent  moyen (24h) Direction dominante Rafales (km/h) maxi Direction rafale maxi Rafales moy (24h) Rafales (km/h)   maxi Total du jour (mm) Durée en heures et dixièmes Intensité maxi sur 1 min (mm/h) Maxi Mini Moy de 1440 relevés Moy (px+pn)/2 Variation Epaisseur neige (cm) Remarques diverses  
Maxi 15,0 9,9 10,98 11,40 11,18 14,6 9,45 6,7 10,7 15,0 9,9 11,40 98% 97% 97,9% 97,5% 12,2 9,2 10,18 51,82 22,22 SSE 69,2 WSW 28,85 0,0 7,0 2,0 60,0 1039,5 1034,8 1037,86 1037,15 17,3 0,0    
Mini 7,1 -1,3 3,33 2,90 3,34 7,1 1,57 -3,7 2,9 7,1 -1,3 2,90 92% 68% 84,2% 82,5% 5,7 -1,7 2,27 13,06 4,92   19,3   6,60 0,0       1015,2 1012,5 1013,77 1013,85 2,1      
Moy 11,46 4,37 8,19 7,92 8,28 11,41 6,05 1,91 7,09 11,44 4,42 7,93 97,2% 81,0% 91,6% 89,1% 9,56 3,76 6,86 25,68 13,29   38,82   17,19 #DIV/0!       1030,32 1023,18 1026,76 1026,75 7,14      
Total                                                     34,0 11,8             0,0    
   
  Observations        
Jours Rafales >= 36,0 km/h Rafales >= 57,6 km/h Rafales >= 75,6 km/h Rafales >= 100,8 km/h Précipi. >= 0,1 mm Précipi. >= 1,0 mm Précipi. >= 5,0 mm Précipi. >= 10,0 mm Tx <= 0 Tx <= -5 Tx <= -10 Tx >= 25 Tx >= 30 Tx >= 35 Tx >= 40 Tn <= 0 Tn <= -5 Tn <= -10 Tn <= -15 Tn <= -20 T moy <= 0 T moy <=     -5 T moy <=     -10 T moy >= 20 T moy >= 25 T moy >= 30 Grêle Grésil Brouillard Brume Orage Neige        
01/01/2020 0 0 0 0 1 1 0 0 0 0 0 0 0 0 0 0 0 0 0 0 0 0 0 0 0 0 0 0 0 0 0 0    
02/01/2020 0 0 0 0 0 0 0 0 0 0 0 0 0 0 0 0 0 0 0 0 0 0 0 0 0 0 0 0 0 0 0 0    
03/01/2020 1 0 0 0 1 1 0 0 0 0 0 0 0 0 0 0 0 0 0 0 0 0 0 0 0 0 0 0 0 0 0 0    
04/01/2020 0 0 0 0 0 0 0 0 0 0 0 0 0 0 0 0 0 0 0 0 0 0 0 0 0 0 0 0 0 0 0 0    
05/01/2020 0 0 0 0 1 0 0 0 0 0 0 0 0 0 0 1 0 0 0 0 0 0 0 0 0 0 0 0 0 0 0 0    
06/01/2020 0 0 0 0 1 0 0 0 0 0 0 0 0 0 0 1 0 0 0 0 0 0 0 0 0 0 0 0 0 0 0 0    
07/01/2020 0 0 0 0 1 1 0 0 0 0 0 0 0 0 0 0 0 0 0 0 0 0 0 0 0 0 0 0 0 0 0 0    
08/01/2020 0 0 0 0 1 0 0 0 0 0 0 0 0 0 0 0 0 0 0 0 0 0 0 0 0 0 0 0 0 0 0 0    
09/01/2020 1 1 0 0 1 1 1 0 0 0 0 0 0 0 0 0 0 0 0 0 0 0 0 0 0 0 0 0 0 0 0 0    
10/01/2020 1 0 0 0 1 0 0 0 0 0 0 0 0 0 0 0 0 0 0 0 0 0 0 0 0 0 0 0 0 0 0 0    
11/01/2020 0 0 0 0 0 0 0 0 0 0 0 0 0 0 0 1 0 0 0 0 0 0 0 0 0 0 0 0 0 0 0 0    
12/01/2020 0 0 0 0 1 1 0 0 0 0 0 0 0 0 0 0 0 0 0 0 0 0 0 0 0 0 0 0 1 0 0 0    
13/01/2020 1 0 0 0 1 1 0 0 0 0 0 0 0 0 0 0 0 0 0 0 0 0 0 0 0 0 0 0 0 0 0 0    
14/01/2020 1 0 0 0 1 1 0 0 0 0 0 0 0 0 0 0 0 0 0 0 0 0 0 0 0 0 0 0 0 0 0 0    
15/01/2020 1 1 0 0 1 0 0 0 0 0 0 0 0 0 0 0 0 0 0 0 0 0 0 0 0 0 0 0 0 0 0 0    
16/01/2020 1 0 0 0 1 0 0 0 0 0 0 0 0 0 0 0 0 0 0 0 0 0 0 0 0 0 0 0 0 0 0 0    
17/01/2020 1 0 0 0 1 1 1 0 0 0 0 0 0 0 0 0 0 0 0 0 0 0 0 0 0 0 0 0 0 0 0 0    
                                                                     
                                                                     
                                                                     
                                                                     
                                                                     
                                                                     
                                                                     
                                                                     
                                                                     
                                                                     
                                                                     
                                                                         
                                                                     
                                                                     
   
  Rafales >= 36,0 km/h Rafales >= 57,6 km/h Rafales >= 75,6 km/h Rafales >= 100,8 km/h Précipi. >= 0,1 mm Précipi. >= 1,0 mm Précipi. >= 5,0 mm Précipi. >= 10,0 mm Tx <=0 Tx <= -5 Tx <= -10 Tx >= 25 Tx >= 30 Tx >= 35 Tx >= 40 Tn <= 0 Tn <= -5 Tn <= -10 Tn <= -15 Tn <= -20 T moy <= 0 T moy <=  -5 T moy <=  -10 T moy >= 20 T moy >= 25 T moy >= 30 Grêle Grésil Brouillard Brume Orage Neige        
Total 8 2 0 0 14 8 2 0 0 0 0 0 0 0 0 3 0 0 0 0 0 0 0 0 0 0 0 0 1 0 0 0